Time;durP1;ratioP1;P1;durP2;ratioP2;P2;SDS_P1;SDS_P2;PMS_P1;PMS_P2;Temp;Humidity;BMP_temperature;BMP_pressure;BME280_temperature;BME280_humidity;BME280_pressure;Samples;Min_cycle;Max_cycle;Signal;HPM_P1;HPM_P2
2023/12/30 00:01:53;;;;;;;7.05;0.82;;;6.80;99.90;;;;;;5032216;28;20059;-72
2023/12/30 00:04:18;;;;;;;0.20;0.20;;;6.80;99.90;;;;;;5027137;28;20036;-72
2023/12/30 00:06:44;;;;;;;1.63;0.38;;;6.80;99.90;;;;;;5035623;28;20134;-71
2023/12/30 00:09:10;;;;;;;2.17;1.27;;;6.80;99.90;;;;;;5034191;28;20392;-73
2023/12/30 00:11:35;;;;;;;5.68;1.40;;;6.80;99.90;;;;;;5034221;28;20089;-71
2023/12/30 00:14:01;;;;;;;5.47;0.80;;;6.90;99.90;;;;;;5038121;28;20037;-72
2023/12/30 00:16:28;;;;;;;1.25;0.45;;;6.90;99.90;;;;;;5031406;28;20029;-71
2023/12/30 00:18:54;;;;;;;0.30;0.25;;;6.90;99.90;;;;;;5038307;28;20059;-72
2023/12/30 00:21:21;;;;;;;2.38;0.40;;;6.90;99.90;;;;;;5040783;28;20119;-71
2023/12/30 00:23:47;;;;;;;1.38;0.52;;;6.90;99.90;;;;;;5035645;28;20124;-72
2023/12/30 00:26:28;;;;;;;0.45;0.28;;;6.80;99.90;;;;;;5034121;28;20036;-72
2023/12/30 00:28:53;;;;;;;3.60;0.32;;;6.70;99.90;;;;;;5035024;28;20524;-72
2023/12/30 00:31:22;;;;;;;8.38;0.50;;;6.60;99.90;;;;;;5036730;28;20037;-72
2023/12/30 00:33:48;;;;;;;4.55;0.52;;;6.60;99.90;;;;;;5037035;28;20089;-72
2023/12/30 00:36:13;;;;;;;2.45;0.30;;;6.50;99.90;;;;;;5031349;28;20060;-73
2023/12/30 00:38:39;;;;;;;0.65;0.65;;;6.40;99.90;;;;;;5034858;28;21255;-71
2023/12/30 00:41:05;;;;;;;1.33;0.30;;;6.30;99.90;;;;;;5038329;28;20029;-72
2023/12/30 00:43:32;;;;;;;1.45;0.43;;;6.20;99.90;;;;;;5033847;28;20040;-72
2023/12/30 00:45:57;;;;;;;7.38;0.55;;;6.10;99.90;;;;;;5037401;28;20074;-72
2023/12/30 00:48:23;;;;;;;0.75;0.47;;;6.10;99.90;;;;;;5036470;28;20045;-72
2023/12/30 00:50:49;;;;;;;9.48;1.23;;;6.00;99.90;;;;;;5033287;28;20060;-73
2023/12/30 00:53:15;;;;;;;1.23;0.22;;;5.90;99.90;;;;;;5037445;28;20505;-72
2023/12/30 00:55:40;;;;;;;0.30;0.30;;;5.80;99.90;;;;;;5030545;28;20033;-72
2023/12/30 00:58:06;;;;;;;0.52;0.35;;;5.80;99.90;;;;;;5031958;28;20028;-72
2023/12/30 01:00:32;;;;;;;2.90;0.68;;;5.80;99.90;;;;;;5036838;28;20162;-72
2023/12/30 01:02:57;;;;;;;0.77;0.55;;;5.70;99.90;;;;;;5028314;28;20064;-72
2023/12/30 01:05:23;;;;;;;6.82;0.90;;;5.70;99.90;;;;;;5030605;28;20094;-71
2023/12/30 01:07:48;;;;;;;0.55;0.55;;;5.70;99.90;;;;;;5032135;28;20037;-71
2023/12/30 01:10:17;;;;;;;3.17;0.47;;;5.60;99.90;;;;;;5032088;28;20052;-72
2023/12/30 01:12:43;;;;;;;2.97;0.57;;;5.60;99.90;;;;;;5037083;28;20098;-72
2023/12/30 01:15:09;;;;;;;4.25;0.70;;;5.50;99.90;;;;;;5034065;28;20740;-72
2023/12/30 01:17:35;;;;;;;2.78;0.95;;;5.60;99.90;;;;;;5029899;28;20025;-71
2023/12/30 01:20:01;;;;;;;0.88;0.52;;;5.50;99.90;;;;;;5039160;28;20480;-71
2023/12/30 01:22:27;;;;;;;0.35;0.20;;;5.50;99.90;;;;;;5032409;28;20032;-71
2023/12/30 01:24:52;;;;;;;0.52;0.52;;;5.50;99.90;;;;;;5031868;28;20420;-72
2023/12/30 01:27:18;;;;;;;11.05;0.40;;;5.60;99.90;;;;;;5031393;28;20390;-71
2023/12/30 01:29:44;;;;;;;8.43;0.70;;;5.50;99.90;;;;;;5028334;28;20064;-72
2023/12/30 01:32:09;;;;;;;2.42;0.50;;;5.50;99.90;;;;;;5036913;28;20036;-71
2023/12/30 01:34:35;;;;;;;0.22;0.22;;;5.50;99.90;;;;;;5030302;28;20521;-72
2023/12/30 01:37:01;;;;;;;0.82;0.55;;;5.60;99.90;;;;;;5025502;28;20389;-71
2023/12/30 01:39:27;;;;;;;6.50;1.17;;;5.60;99.90;;;;;;5032506;28;20041;-72
2023/12/30 01:41:52;;;;;;;0.32;0.32;;;5.60;99.90;;;;;;5036483;28;20167;-71
2023/12/30 01:44:18;;;;;;;0.95;0.28;;;5.50;99.90;;;;;;5030549;28;20045;-71
2023/12/30 01:46:44;;;;;;;4.68;0.60;;;5.50;99.90;;;;;;5048679;28;20064;-72
2023/12/30 01:49:11;;;;;;;2.13;0.70;;;5.60;99.90;;;;;;5051740;28;20094;-71
2023/12/30 01:51:37;;;;;;;0.57;0.13;;;5.50;99.90;;;;;;5033200;28;20087;-72
2023/12/30 01:54:04;;;;;;;4.43;0.60;;;5.50;99.90;;;;;;5035380;28;20037;-72
2023/12/30 01:56:31;;;;;;;0.32;0.32;;;5.50;99.90;;;;;;5028433;28;20457;-71
2023/12/30 01:58:59;;;;;;;7.38;1.65;;;5.40;99.90;;;;;;5032567;28;20083;-71
2023/12/30 02:01:27;;;;;;;0.60;0.40;;;5.40;99.90;;;;;;5036775;28;20124;-70
2023/12/30 02:03:53;;;;;;;4.13;0.73;;;5.40;99.90;;;;;;5032734;28;20040;-71
2023/12/30 02:06:19;;;;;;;0.40;0.40;;;5.40;99.90;;;;;;5033093;28;20040;-72
2023/12/30 02:08:46;;;;;;;1.52;0.82;;;5.40;99.90;;;;;;5033280;28;20056;-72
2023/12/30 02:11:12;;;;;;;0.55;0.55;;;5.30;99.90;;;;;;5029562;28;20037;-71
2023/12/30 02:13:42;;;;;;;0.13;0.13;;;5.20;99.90;;;;;;5035089;28;20033;-71
2023/12/30 02:16:08;;;;;;;1.85;0.95;;;5.20;99.90;;;;;;5031739;28;21071;-71
2023/12/30 02:18:33;;;;;;;1.65;0.30;;;5.20;99.90;;;;;;5030932;28;20626;-71
2023/12/30 02:20:59;;;;;;;19.90;0.95;;;5.20;99.90;;;;;;5034786;28;20037;-71
2023/12/30 02:23:25;;;;;;;5.25;2.22;;;5.20;99.90;;;;;;5031311;28;20608;-72
2023/12/30 02:25:50;;;;;;;3.15;0.40;;;5.20;99.90;;;;;;5035892;28;20086;-72
2023/12/30 02:28:17;;;;;;;0.20;0.20;;;5.20;99.90;;;;;;5033205;28;20057;-72
2023/12/30 02:30:42;;;;;;;4.32;1.13;;;5.20;99.90;;;;;;5028061;28;20064;-72
2023/12/30 02:33:08;;;;;;;3.28;0.65;;;5.20;99.90;;;;;;5036931;28;20124;-71
2023/12/30 02:35:33;;;;;;;8.95;1.55;;;5.20;99.90;;;;;;5034428;28;20174;-72
2023/12/30 02:37:59;;;;;;;2.72;0.57;;;5.20;99.90;;;;;;5030023;28;20037;-71
2023/12/30 02:40:25;;;;;;;5.93;0.65;;;5.10;99.90;;;;;;5034995;28;20041;-73
2023/12/30 02:42:51;;;;;;;3.20;0.75;;;5.10;99.90;;;;;;5031968;28;20033;-73
2023/12/30 02:45:16;;;;;;;1.48;0.38;;;5.10;99.90;;;;;;5034730;28;20051;-72
2023/12/30 02:47:42;;;;;;;2.63;0.50;;;5.00;99.90;;;;;;5036887;28;20057;-72
2023/12/30 02:50:08;;;;;;;8.07;1.20;;;5.00;99.90;;;;;;5032539;28;20043;-72
2023/12/30 02:52:34;;;;;;;0.45;0.22;;;5.00;99.90;;;;;;5033721;28;20039;-72
2023/12/30 02:55:00;;;;;;;0.70;0.70;;;4.90;99.90;;;;;;5036557;28;20489;-73
2023/12/30 02:57:26;;;;;;;5.88;0.15;;;4.90;99.90;;;;;;5027848;28;20028;-71
2023/12/30 02:59:52;;;;;;;0.20;0.13;;;4.90;99.90;;;;;;5034975;28;20057;-72
2023/12/30 03:02:18;;;;;;;1.45;0.88;;;5.00;99.90;;;;;;5030788;28;20120;-71
2023/12/30 03:08:05;;;;;;;0.63;0.50;;;5.20;99.90;;;;;;5032203;28;20409;-71
2023/12/30 03:10:31;;;;;;;0.82;0.32;;;5.30;99.90;;;;;;5027959;28;20033;-71
2023/12/30 03:12:56;;;;;;;4.20;0.32;;;5.40;99.90;;;;;;5036679;28;20047;-71
2023/12/30 03:15:22;;;;;;;1.92;0.60;;;5.30;99.90;;;;;;5033305;28;20029;-73
2023/12/30 03:17:49;;;;;;;0.30;0.30;;;5.40;99.90;;;;;;5026590;28;20039;-72
2023/12/30 03:20:14;;;;;;;2.33;0.88;;;5.40;99.90;;;;;;5032306;28;20029;-72
2023/12/30 03:22:40;;;;;;;6.35;0.80;;;5.60;99.90;;;;;;5034109;28;20043;-73
2023/12/30 03:25:06;;;;;;;3.55;1.40;;;5.70;99.90;;;;;;5030460;28;20381;-73
2023/12/30 03:27:32;;;;;;;10.52;1.10;;;5.70;99.90;;;;;;5030808;28;20030;-73
2023/12/30 03:29:57;;;;;;;3.00;1.08;;;5.80;99.90;;;;;;5031322;28;20034;-73
2023/12/30 03:32:23;;;;;;;1.30;0.55;;;5.80;99.90;;;;;;5033365;28;20029;-71
2023/12/30 03:34:49;;;;;;;5.72;0.38;;;5.80;99.90;;;;;;5033593;28;20822;-72
2023/12/30 03:37:14;;;;;;;0.77;0.70;;;5.90;99.90;;;;;;5030369;28;20608;-72
2023/12/30 03:39:41;;;;;;;6.13;0.73;;;5.90;99.90;;;;;;5032402;28;20029;-72
2023/12/30 03:42:07;;;;;;;3.42;0.52;;;6.00;99.90;;;;;;5038112;28;20025;-72
2023/12/30 03:44:33;;;;;;;3.17;0.80;;;6.10;99.90;;;;;;5031654;28;20381;-73
2023/12/30 03:46:59;;;;;;;0.22;0.10;;;6.20;99.90;;;;;;5039126;28;20448;-72
2023/12/30 03:49:24;;;;;;;4.63;0.30;;;6.30;99.90;;;;;;5033692;28;20031;-71
2023/12/30 03:51:50;;;;;;;0.90;0.82;;;6.40;99.90;;;;;;5035167;28;20033;-71
2023/12/30 03:54:16;;;;;;;3.55;0.50;;;6.50;99.90;;;;;;5040574;28;20036;-72
2023/12/30 03:56:42;;;;;;;20.58;0.98;;;6.60;99.90;;;;;;5033387;28;20045;-71
2023/12/30 03:59:07;;;;;;;3.70;0.47;;;6.60;99.90;;;;;;5036712;28;21707;-71
2023/12/30 04:01:33;;;;;;;2.15;0.73;;;6.60;99.90;;;;;;5036220;28;20568;-72
2023/12/30 04:03:59;;;;;;;2.95;0.93;;;6.70;99.90;;;;;;5029381;28;20562;-71
2023/12/30 04:06:24;;;;;;;4.82;1.00;;;6.70;99.90;;;;;;5038510;28;20033;-71
2023/12/30 04:08:50;;;;;;;3.15;0.60;;;6.70;99.90;;;;;;5037325;28;20037;-72
2023/12/30 04:11:16;;;;;;;3.25;0.82;;;6.70;99.90;;;;;;5030935;28;20033;-72
2023/12/30 04:13:41;;;;;;;10.30;0.75;;;6.80;99.90;;;;;;5039901;28;20041;-72
2023/12/30 04:16:08;;;;;;;5.63;1.05;;;6.80;99.90;;;;;;5033532;28;20044;-71
2023/12/30 04:18:33;;;;;;;1.88;0.82;;;6.70;99.90;;;;;;5033915;28;20029;-72
2023/12/30 04:20:59;;;;;;;4.85;0.45;;;6.70;99.90;;;;;;5042043;28;20114;-71
2023/12/30 04:23:26;;;;;;;2.28;0.85;;;6.60;99.90;;;;;;5042243;28;20052;-70
2023/12/30 04:25:51;;;;;;;0.25;0.25;;;6.60;99.90;;;;;;5038559;28;20033;-71
2023/12/30 04:28:17;;;;;;;1.15;0.65;;;6.50;99.90;;;;;;5041738;28;20025;-71
2023/12/30 04:30:43;;;;;;;1.27;0.75;;;6.50;99.90;;;;;;5036100;28;20061;-72
2023/12/30 04:33:08;;;;;;;0.43;0.32;;;6.40;99.90;;;;;;5060725;28;20013;-72
2023/12/30 04:35:34;;;;;;;2.35;1.17;;;6.40;99.90;;;;;;5052695;28;20389;-71
2023/12/30 04:38:00;;;;;;;1.27;0.43;;;6.40;99.90;;;;;;5033427;28;20038;-71
2023/12/30 04:40:26;;;;;;;1.27;0.57;;;6.40;99.90;;;;;;5036687;28;20063;-71
2023/12/30 04:42:51;;;;;;;10.82;1.50;;;6.40;99.90;;;;;;5039181;28;20033;-72
2023/12/30 04:45:17;;;;;;;1.73;1.08;;;6.40;99.90;;;;;;5033946;28;21267;-71
2023/12/30 04:47:43;;;;;;;0.43;0.40;;;6.50;99.90;;;;;;5037113;28;20043;-72
2023/12/30 04:50:08;;;;;;;2.30;0.47;;;6.40;99.90;;;;;;5033998;28;20821;-72
2023/12/30 04:52:34;;;;;;;6.68;0.32;;;6.40;99.90;;;;;;5037501;28;20033;-71
2023/12/30 04:55:00;;;;;;;6.47;0.47;;;6.40;99.90;;;;;;5041184;28;20033;-71
2023/12/30 04:57:25;;;;;;;0.63;0.10;;;6.50;99.90;;;;;;5034158;28;20053;-72
2023/12/30 04:59:51;;;;;;;13.77;1.42;;;6.60;99.90;;;;;;5034922;28;20582;-71
2023/12/30 05:02:16;;;;;;;1.55;1.05;;;6.70;99.90;;;;;;5035612;28;20075;-72
2023/12/30 05:05:12;;;;;;;3.20;0.85;;;7.30;99.90;;;;;;5030166;28;20044;-72
2023/12/30 05:07:38;;;;;;;0.57;0.45;;;7.30;99.90;;;;;;5037329;28;20033;-71
2023/12/30 05:10:04;;;;;;;7.57;1.02;;;7.70;99.90;;;;;;5034399;28;20507;-72
2023/12/30 05:12:30;;;;;;;18.27;1.40;;;7.90;99.90;;;;;;5037095;28;20037;-72
2023/12/30 05:14:56;;;;;;;4.57;0.77;;;8.10;99.90;;;;;;5039128;28;20048;-72
2023/12/30 05:17:21;;;;;;;11.80;1.13;;;8.20;99.90;;;;;;5032772;28;20393;-72
2023/12/30 05:19:47;;;;;;;5.05;0.73;;;8.30;99.90;;;;;;5033345;28;20033;-72
2023/12/30 05:22:12;;;;;;;4.78;0.63;;;8.40;99.90;;;;;;5034486;28;20497;-73
2023/12/30 05:24:38;;;;;;;8.98;1.80;;;8.60;99.90;;;;;;5032787;28;20061;-71
2023/12/30 05:27:04;;;;;;;5.75;0.85;;;8.70;99.90;;;;;;5037142;28;20029;-72
2023/12/30 05:29:30;;;;;;;1.10;0.25;;;8.80;99.90;;;;;;5040389;28;20040;-72
2023/12/30 05:31:55;;;;;;;13.95;1.20;;;9.00;99.90;;;;;;5031623;28;20044;-71
2023/12/30 05:34:21;;;;;;;2.55;0.63;;;9.00;99.90;;;;;;5034785;28;20536;-71
2023/12/30 05:36:47;;;;;;;2.75;0.60;;;9.10;99.90;;;;;;5035997;28;20038;-71
2023/12/30 05:39:14;;;;;;;9.35;0.52;;;9.20;99.90;;;;;;5034112;28;20036;-72
2023/12/30 05:41:41;;;;;;;5.68;0.55;;;;;;;;;;5036544;28;20556;-72
2023/12/30 05:44:06;;;;;;;10.70;1.33;;;9.30;99.90;;;;;;5032662;28;20045;-72
2023/12/30 05:46:32;;;;;;;8.68;0.80;;;9.30;99.90;;;;;;5037686;28;20037;-72
2023/12/30 05:48:59;;;;;;;7.10;0.77;;;9.30;99.90;;;;;;5039042;28;20063;-72
2023/12/30 05:51:24;;;;;;;9.13;0.60;;;9.30;99.90;;;;;;5030214;28;20048;-72
2023/12/30 05:53:50;;;;;;;7.72;0.82;;;9.40;99.90;;;;;;5038724;28;20036;-72
2023/12/30 05:56:24;;;;;;;4.57;1.17;;;9.40;99.90;;;;;;5040695;28;20653;-73
2023/12/30 05:58:51;;;;;;;4.07;0.75;;;9.50;99.90;;;;;;5032634;28;20064;-72
2023/12/30 06:01:17;;;;;;;1.38;0.52;;;9.60;99.90;;;;;;5035553;28;20494;-72
2023/12/30 06:03:43;;;;;;;4.55;1.27;;;9.80;99.90;;;;;;5030779;28;21273;-71
2023/12/30 06:06:08;;;;;;;2.33;1.08;;;9.90;99.90;;;;;;5033405;28;20036;-72
2023/12/30 06:08:34;;;;;;;7.80;1.35;;;10.00;99.90;;;;;;5038517;28;20032;-73
2023/12/30 06:10:59;;;;;;;2.40;1.05;;;10.00;99.90;;;;;;5030944;28;20965;-72
2023/12/30 06:13:25;;;;;;;1.77;0.60;;;10.10;99.90;;;;;;5037872;28;20032;-72
2023/12/30 06:15:51;;;;;;;5.72;1.40;;;10.10;99.90;;;;;;5034992;28;20428;-72
2023/12/30 06:18:17;;;;;;;7.22;0.50;;;10.00;99.90;;;;;;5030276;28;20064;-72
2023/12/30 06:20:46;;;;;;;9.48;1.17;;;10.00;99.90;;;;;;5033323;28;20030;-71
2023/12/30 06:23:12;;;;;;;;;;;10.00;99.90;;;;;;5037527;28;20037;-72
2023/12/30 06:25:38;;;;;;;0.93;0.43;;;10.00;99.90;;;;;;5032293;28;19978;-72
2023/12/30 06:28:04;;;;;;;2.72;0.95;;;10.00;99.90;;;;;;5036944;28;20873;-73
2023/12/30 06:30:30;;;;;;;1.13;0.65;;;10.00;99.90;;;;;;5032498;28;20419;-72
2023/12/30 06:32:55;;;;;;;6.20;1.58;;;10.10;99.90;;;;;;5033286;28;20037;-72
2023/12/30 06:35:21;;;;;;;11.35;1.48;;;10.10;99.90;;;;;;5032595;28;20195;-72
2023/12/30 06:37:48;;;;;;;4.95;1.30;;;10.10;99.90;;;;;;5032286;28;20033;-72
2023/12/30 06:40:14;;;;;;;7.05;1.08;;;10.20;99.90;;;;;;5035000;28;20029;-73
2023/12/30 06:42:39;;;;;;;12.48;2.72;;;10.10;99.90;;;;;;5036884;28;20028;-72
2023/12/30 06:45:06;;;;;;;7.15;0.50;;;10.20;99.90;;;;;;5029021;28;20048;-72
2023/12/30 06:47:31;;;;;;;6.65;1.17;;;10.20;99.90;;;;;;5035475;28;20029;-72
2023/12/30 06:49:57;;;;;;;7.25;1.27;;;10.20;99.90;;;;;;5033547;28;20037;-71
2023/12/30 06:52:23;;;;;;;7.80;0.85;;;10.10;99.90;;;;;;5034208;28;20031;-72
2023/12/30 06:54:49;;;;;;;4.70;0.80;;;10.20;99.90;;;;;;5033780;28;20725;-72
2023/12/30 06:57:15;;;;;;;8.07;0.95;;;10.10;99.90;;;;;;5032106;28;20033;-71
2023/12/30 06:59:40;;;;;;;11.20;1.33;;;10.10;99.90;;;;;;5029617;28;20605;-71
2023/12/30 07:02:06;;;;;;;4.45;0.70;;;10.10;99.90;;;;;;5032821;28;20225;-71
2023/12/30 07:04:31;;;;;;;4.95;0.50;;;10.10;99.90;;;;;;5028460;28;20536;-71
2023/12/30 07:06:57;;;;;;;8.77;1.38;;;10.10;99.90;;;;;;5031953;28;20032;-72
2023/12/30 07:09:23;;;;;;;6.18;1.65;;;10.10;99.90;;;;;;5032589;28;20079;-71
2023/12/30 07:11:48;;;;;;;12.18;1.30;;;10.20;99.90;;;;;;5029067;28;20056;-74
2023/12/30 07:14:14;;;;;;;8.73;1.00;;;10.20;99.90;;;;;;5034312;28;20052;-72
2023/12/30 07:16:40;;;;;;;6.95;1.27;;;10.20;99.90;;;;;;5047256;28;20081;-70
2023/12/30 07:19:07;;;;;;;26.45;1.83;;;10.30;99.90;;;;;;5055864;28;20056;-72
2023/12/30 07:21:32;;;;;;;9.75;1.42;;;10.30;99.90;;;;;;5033653;28;20115;-72
2023/12/30 07:23:58;;;;;;;8.80;1.20;;;10.40;99.90;;;;;;5034204;28;20043;-72
2023/12/30 07:26:24;;;;;;;15.80;1.63;;;10.40;99.90;;;;;;5035856;28;20037;-71
2023/12/30 07:28:49;;;;;;;11.20;1.10;;;10.40;99.90;;;;;;5034531;28;20041;-71
2023/12/30 07:31:15;;;;;;;6.65;1.00;;;10.30;99.90;;;;;;5030425;28;20044;-74
2023/12/30 07:33:41;;;;;;;19.23;1.63;;;10.30;99.90;;;;;;5034482;28;20037;-72
2023/12/30 07:36:07;;;;;;;12.40;0.98;;;10.30;99.90;;;;;;5032711;28;20017;-72
2023/12/30 07:38:33;;;;;;;8.55;0.90;;;10.30;99.90;;;;;;5031812;28;20076;-71
2023/12/30 07:40:59;;;;;;;16.98;1.63;;;10.30;99.90;;;;;;5033525;28;20760;-72
2023/12/30 07:43:24;;;;;;;13.57;1.13;;;10.30;99.90;;;;;;5035630;28;20107;-72
2023/12/30 07:45:50;;;;;;;12.35;1.38;;;10.30;99.90;;;;;;5026569;28;20382;-72
2023/12/30 07:48:16;;;;;;;14.02;2.45;;;10.30;99.90;;;;;;5033142;28;20058;-72
2023/12/30 07:50:42;;;;;;;18.88;1.45;;;10.40;99.90;;;;;;5032478;28;20150;-72
2023/12/30 07:53:08;;;;;;;4.32;1.27;;;10.40;99.90;;;;;;5033556;28;20123;-71
2023/12/30 07:55:34;;;;;;;22.08;1.90;;;10.40;99.90;;;;;;5034399;28;20041;-72
2023/12/30 07:58:00;;;;;;;2.45;0.98;;;10.40;99.90;;;;;;5030232;28;20034;-71
2023/12/30 08:00:26;;;;;;;5.15;1.17;;;10.40;99.90;;;;;;5032229;28;20053;-71
2023/12/30 08:02:51;;;;;;;12.13;2.47;;;10.40;99.90;;;;;;5033407;28;20035;-71
2023/12/30 08:05:18;;;;;;;16.80;1.92;;;10.40;99.90;;;;;;5027239;28;20497;-71
2023/12/30 08:07:43;;;;;;;9.27;1.90;;;10.50;99.90;;;;;;5034522;28;20057;-71
2023/12/30 08:10:11;;;;;;;4.00;1.35;;;10.40;99.90;;;;;;5032926;28;20080;-72
2023/12/30 08:12:37;;;;;;;19.73;1.85;;;10.40;99.90;;;;;;5032630;28;20021;-71
2023/12/30 08:15:04;;;;;;;6.70;1.40;;;10.50;99.90;;;;;;5033843;28;20086;-73
2023/12/30 08:17:30;;;;;;;19.35;1.67;;;10.50;99.90;;;;;;5031596;28;20044;-72
2023/12/30 08:20:49;;;;;;;6.82;0.75;;;10.50;99.90;;;;;;5034331;28;21169;-72
2023/12/30 08:23:15;;;;;;;15.57;1.65;;;10.50;99.90;;;;;;5034481;28;20425;-70
2023/12/30 08:25:40;;;;;;;9.68;1.10;;;10.50;99.90;;;;;;5029466;28;20594;-70
2023/12/30 08:28:06;;;;;;;7.10;0.95;;;10.40;99.90;;;;;;5040232;28;20037;-72
2023/12/30 08:30:31;;;;;;;15.10;2.75;;;10.40;99.90;;;;;;5036264;28;20067;-71
2023/12/30 08:33:03;;;;;;;5.35;0.75;;;10.30;99.90;;;;;;5028599;28;20065;-71
2023/12/30 08:35:29;;;;;;;5.55;1.60;;;10.30;99.90;;;;;;5036116;28;20494;-72
2023/12/30 08:37:55;;;;;;;9.18;1.83;;;10.40;99.90;;;;;;5033154;28;20045;-72
2023/12/30 08:40:20;;;;;;;3.83;1.63;;;10.40;99.90;;;;;;5033711;28;20048;-72
2023/12/30 08:42:46;;;;;;;9.02;1.65;;;10.50;99.90;;;;;;5037755;28;20402;-72
2023/12/30 08:45:18;;;;;;;14.32;2.13;;;10.50;99.90;;;;;;5035321;28;20213;-71
2023/12/30 08:47:45;;;;;;;19.27;1.85;;;10.50;99.90;;;;;;5033158;28;20036;-71
2023/12/30 08:50:12;;;;;;;8.73;1.48;;;10.60;99.90;;;;;;5038564;28;20034;-71
2023/12/30 08:52:38;;;;;;;6.03;0.52;;;10.60;99.90;;;;;;5034336;28;20126;-73
2023/12/30 08:55:09;;;;;;;13.40;1.73;;;10.60;99.90;;;;;;5039775;28;20767;-71
2023/12/30 08:57:35;;;;;;;8.95;2.30;;;10.60;99.90;;;;;;5038851;28;20013;-71
2023/12/30 09:00:01;;;;;;;13.75;1.00;;;10.70;99.90;;;;;;5032894;28;20625;-73
2023/12/30 09:02:27;;;;;;;7.53;0.98;;;10.70;99.90;;;;;;5033926;28;20029;-72
2023/12/30 09:04:56;;;;;;;5.53;1.17;;;10.70;99.90;;;;;;5030374;28;20029;-71
2023/12/30 09:07:21;;;;;;;4.93;0.95;;;10.70;99.90;;;;;;5033525;28;20058;-70
2023/12/30 09:09:47;;;;;;;14.98;1.45;;;10.70;99.90;;;;;;5032573;28;20669;-71
2023/12/30 09:12:12;;;;;;;8.10;0.80;;;10.70;99.90;;;;;;5028666;28;20040;-71
2023/12/30 09:14:38;;;;;;;16.95;1.65;;;10.70;99.90;;;;;;5034892;28;20036;-71
2023/12/30 09:17:04;;;;;;;20.40;2.08;;;10.70;99.90;;;;;;5034160;28;20094;-71
2023/12/30 09:19:30;;;;;;;6.57;1.52;;;10.70;99.90;;;;;;5029127;28;21535;-72
2023/12/30 09:21:55;;;;;;;6.10;0.93;;;10.70;99.90;;;;;;5039931;28;20103;-71
2023/12/30 09:24:21;;;;;;;15.82;1.70;;;10.70;99.90;;;;;;5036915;28;20566;-72
2023/12/30 09:26:46;;;;;;;2.72;0.80;;;10.70;99.90;;;;;;5034808;28;20029;-72
2023/12/30 09:29:12;;;;;;;10.75;1.17;;;10.70;99.90;;;;;;5038951;28;20056;-71
2023/12/30 09:31:38;;;;;;;2.78;0.68;;;10.70;99.90;;;;;;5035365;28;20091;-71
2023/12/30 09:34:03;;;;;;;9.65;1.05;;;10.60;99.90;;;;;;5035058;28;20371;-70
2023/12/30 09:36:29;;;;;;;4.63;0.80;;;10.70;99.90;;;;;;5032683;28;20030;-71
2023/12/30 09:38:54;;;;;;;9.90;1.30;;;10.60;99.90;;;;;;5028935;28;20072;-71
2023/12/30 09:41:24;;;;;;;3.40;0.82;;;10.70;99.90;;;;;;5034086;28;20131;-71
2023/12/30 09:43:51;;;;;;;11.45;1.10;;;10.70;99.90;;;;;;5034977;28;20485;-72
2023/12/30 09:46:17;;;;;;;8.68;2.22;;;10.70;99.90;;;;;;5029574;28;20029;-71
2023/12/30 09:48:46;;;;;;;6.50;0.90;;;10.70;99.90;;;;;;5035270;28;20043;-71
2023/12/30 09:51:11;;;;;;;19.98;3.85;;;10.80;99.90;;;;;;5036677;28;20095;-72
2023/12/30 09:53:38;;;;;;;3.40;1.23;;;10.70;99.90;;;;;;5035605;28;20400;-71
2023/12/30 09:56:05;;;;;;;3.67;0.70;;;10.80;99.90;;;;;;5035883;28;20028;-71
2023/12/30 09:58:32;;;;;;;9.80;1.88;;;10.80;99.90;;;;;;5032039;28;20021;-72
2023/12/30 10:00:59;;;;;;;2.33;1.25;;;10.90;99.90;;;;;;5037912;28;20052;-71
2023/12/30 10:03:25;;;;;;;12.05;0.90;;;10.90;99.90;;;;;;5051598;28;20592;-69
2023/12/30 10:05:54;;;;;;;6.78;1.38;;;10.90;99.90;;;;;;5027483;28;20083;-70
2023/12/30 10:08:21;;;;;;;12.50;1.25;;;10.90;99.90;;;;;;5034675;28;20029;-71
2023/12/30 10:10:49;;;;;;;7.95;0.80;;;10.90;99.90;;;;;;5035944;28;20037;-71
2023/12/30 10:13:21;;;;;;;1.55;0.75;;;10.90;99.90;;;;;;5030258;28;20506;-71
2023/12/30 10:15:48;;;;;;;11.00;2.28;;;10.90;99.90;;;;;;5035322;28;20029;-71
2023/12/30 10:18:15;;;;;;;5.38;1.05;;;11.00;99.90;;;;;;5030270;28;20489;-72
2023/12/30 10:20:43;;;;;;;5.65;1.48;;;11.00;99.90;;;;;;5032770;28;20699;-71
2023/12/30 10:23:09;;;;;;;20.65;1.65;;;11.00;99.90;;;;;;5035683;28;20052;-71
2023/12/30 10:25:35;;;;;;;7.55;1.05;;;11.00;99.90;;;;;;5031821;28;20029;-71
2023/12/30 10:28:01;;;;;;;4.07;0.47;;;11.00;99.90;;;;;;5036052;28;20132;-71
2023/12/30 10:30:28;;;;;;;7.22;0.80;;;11.00;99.90;;;;;;5034846;28;20040;-71
2023/12/30 10:33:05;;;;;;;4.70;0.82;;;11.00;99.90;;;;;;5025938;28;20037;-71
2023/12/30 10:35:31;;;;;;;5.57;0.77;;;11.00;99.90;;;;;;5034348;28;20061;-71
2023/12/30 10:37:56;;;;;;;11.60;1.55;;;11.00;99.90;;;;;;5034426;28;20017;-71
2023/12/30 10:40:23;;;;;;;5.63;1.30;;;11.10;99.90;;;;;;5028854;28;20029;-71
2023/12/30 10:42:48;;;;;;;7.32;2.28;;;11.10;99.90;;;;;;5036303;28;20033;-71
2023/12/30 10:45:14;;;;;;;13.50;1.45;;;11.10;99.90;;;;;;5029347;28;20032;-73
2023/12/30 10:47:40;;;;;;;4.72;1.27;;;11.10;99.90;;;;;;5029101;28;20294;-71
2023/12/30 10:50:09;;;;;;;6.93;1.10;;;11.10;99.90;;;;;;5029623;28;20037;-71
2023/12/30 10:52:39;;;;;;;11.18;1.67;;;11.10;99.90;;;;;;5032274;28;20033;-71
2023/12/30 10:55:09;;;;;;;10.65;0.93;;;11.10;99.90;;;;;;5037756;28;20043;-71
2023/12/30 10:57:37;;;;;;;8.82;1.25;;;11.10;99.90;;;;;;5033513;28;20051;-72
2023/12/30 11:00:09;;;;;;;9.43;0.98;;;11.10;99.90;;;;;;5032631;28;20045;-72
2023/12/30 11:02:37;;;;;;;13.07;1.33;;;11.10;99.90;;;;;;5034364;28;20052;-72
2023/12/30 11:05:07;;;;;;;2.90;1.20;;;11.10;99.90;;;;;;5031375;28;20040;-72
2023/12/30 11:07:34;;;;;;;7.80;1.15;;;11.20;99.90;;;;;;5028582;28;20175;-73
2023/12/30 11:09:59;;;;;;;3.35;0.75;;;11.20;99.90;;;;;;5032630;28;20029;-71
2023/12/30 11:12:27;;;;;;;2.13;0.88;;;11.20;99.90;;;;;;5029422;28;20041;-71
2023/12/30 11:14:53;;;;;;;11.13;2.28;;;11.20;99.90;;;;;;5032760;28;20420;-71
2023/12/30 11:17:33;;;;;;;7.35;1.20;;;11.30;99.90;;;;;;5031174;28;21712;-71
2023/12/30 11:20:24;;;;;;;4.72;1.48;;;11.30;99.90;;;;;;5029869;28;20033;-71
2023/12/30 11:22:53;;;;;;;10.82;1.95;;;11.20;99.90;;;;;;5033648;28;20041;-72
2023/12/30 11:25:19;;;;;;;12.00;1.23;;;11.20;99.90;;;;;;5034585;28;20041;-71
2023/12/30 11:27:48;;;;;;;3.97;1.42;;;11.20;99.90;;;;;;5031693;28;21006;-71
2023/12/30 11:30:17;;;;;;;11.17;1.50;;;11.20;99.90;;;;;;5033869;28;20029;-71
2023/12/30 11:32:44;;;;;;;5.38;1.23;;;11.30;99.90;;;;;;5026844;28;20119;-71
2023/12/30 11:35:12;;;;;;;8.73;2.00;;;11.30;99.90;;;;;;5030341;28;20045;-71
2023/12/30 11:37:41;;;;;;;5.30;1.30;;;11.30;99.90;;;;;;5033487;28;20029;-71
2023/12/30 11:40:11;;;;;;;8.90;1.60;;;11.30;99.90;;;;;;5030659;28;20032;-72
2023/12/30 11:42:37;;;;;;;10.30;1.30;;;11.30;99.90;;;;;;5032321;28;20871;-70
2023/12/30 11:45:03;;;;;;;5.88;1.08;;;11.30;99.90;;;;;;5030619;28;20041;-72
2023/12/30 11:47:30;;;;;;;5.97;1.27;;;11.30;99.90;;;;;;5026501;28;20517;-71
2023/12/30 11:50:05;;;;;;;6.88;1.38;;;11.40;99.90;;;;;;5032299;28;20029;-71
2023/12/30 11:52:30;;;;;;;7.80;1.95;;;11.50;99.90;;;;;;5026993;28;20316;-72
2023/12/30 11:54:56;;;;;;;13.60;1.80;;;11.50;99.90;;;;;;5030282;28;20424;-73
2023/12/30 11:57:22;;;;;;;15.05;2.30;;;11.50;99.90;;;;;;5034593;28;20401;-71
2023/12/30 11:59:47;;;;;;;11.88;1.83;;;11.70;99.90;;;;;;5027606;28;20041;-71
2023/12/30 12:02:13;;;;;;;11.35;2.40;;;11.70;99.90;;;;;;5034202;28;20140;-71
2023/12/30 12:04:39;;;;;;;6.97;0.93;;;11.80;99.90;;;;;;5035722;28;20044;-71
2023/12/30 12:07:05;;;;;;;5.55;1.15;;;11.80;99.90;;;;;;5029976;28;20025;-71
2023/12/30 12:09:31;;;;;;;7.90;1.05;;;11.80;99.90;;;;;;5034233;28;20040;-71
2023/12/30 12:11:57;;;;;;;7.93;1.73;;;11.70;99.90;;;;;;5032283;28;20498;-71
2023/12/30 12:14:24;;;;;;;3.30;0.98;;;11.70;99.90;;;;;;5031790;28;20033;-71
2023/12/30 12:16:50;;;;;;;13.77;1.98;;;11.70;99.90;;;;;;5035879;28;20025;-71
2023/12/30 12:19:16;;;;;;;4.32;1.75;;;11.50;99.90;;;;;;5031299;28;20513;-71
2023/12/30 12:21:42;;;;;;;6.28;2.35;;;11.50;99.90;;;;;;5035149;28;20143;-72
2023/12/30 12:24:07;;;;;;;10.07;2.25;;;11.40;99.90;;;;;;5035021;28;20032;-72
2023/12/30 12:26:33;;;;;;;6.32;1.23;;;11.40;99.90;;;;;;5030100;28;20029;-71
2023/12/30 12:28:59;;;;;;;12.23;1.65;;;11.40;99.90;;;;;;5034106;28;20036;-72
2023/12/30 12:31:30;;;;;;;8.45;1.25;;;11.40;99.90;;;;;;5038112;28;20068;-71
2023/12/30 12:33:57;;;;;;;7.90;1.17;;;11.40;99.90;;;;;;5033547;28;20033;-71
2023/12/30 12:36:22;;;;;;;13.10;1.92;;;11.40;99.90;;;;;;5037999;28;21368;-71
2023/12/30 12:38:50;;;;;;;5.13;0.85;;;11.40;99.90;;;;;;5033484;28;20083;-71
2023/12/30 12:41:15;;;;;;;7.53;1.70;;;11.60;99.90;;;;;;5033401;28;20474;-72
2023/12/30 12:43:41;;;;;;;5.75;1.27;;;11.60;99.90;;;;;;5040261;28;20051;-71
2023/12/30 12:46:08;;;;;;;8.75;1.75;;;11.60;99.90;;;;;;5059031;28;20020;-70
2023/12/30 12:48:34;;;;;;;5.55;1.25;;;11.60;99.90;;;;;;5020776;28;20123;-71
2023/12/30 12:51:00;;;;;;;3.35;0.80;;;11.70;99.90;;;;;;5036603;28;20557;-72